Airfield :
LOGIN :

Register | Disclaimer

   EN    FR    IT 

 










Legend :    VFR   Marginal VFR   IFR   Intensive IFR   Very Intensive IFR
Visi :
Ceiling :
>= 8 km
>= 3000ft
5 to 8 km
1000 to 3000 ft
1500m to 5 km
500 to 1000 ft
800 to 1500m
200 to 500 ft
< 800m
< 200 ft
Symbols :   Thunderstorms  Fog  Heavy snow  Heavy precipitations  Wind > 20 kt
SIGMETs :     Misc.  Thunderstorms  Icing  Turbulence  Mountain Waves  Volcanic Ashes






- Airport Elevation : 82 ft
- IATA code : QIE


LFMI - Istres

CURRENT METAR :
  • 160530Z AUTO 35014KT CAVOK 03/M03 Q1022 TEMPO 35025G35KT

EXPIRED METARs :
  • 160500Z AUTO 35020KT CAVOK 03/M02 Q1022 TEMPO 35025G35KT
  • 160430Z AUTO 35025KT CAVOK 03/M02 Q1021 TEMPO 35025G35KT
  • 160400Z AUTO 34018KT CAVOK 03/M02 Q1022 TEMPO 35025G35KT
  • 160330Z AUTO 34016KT CAVOK 03/M02 Q1021 TEMPO 35025G35KT
  • 160300Z AUTO 36017KT CAVOK 03/M02 Q1021 TEMPO 35025G35KT

TAF TAF LFMI
Valid from the 16 at 03:00 until the 17 at 03:00 UTC


160200Z 1603/1703 34020G30KT CAVOK TX08/1615Z TN02/1607Z
PROB40
TEMPO 1603/1611 35025G35KT
BECMG 1623/1701 33010KT



MET'MAP, your aeronautical weather chart ! - Copyright ORBIFLY December 2007 - Disclaimer

ORBIFLY MET'MAP TEAM :

Programming & Development : Alexandra Zaïnal
Concept & original design : Baudouin d'Aumeries
Assistance for programming : Marc-Olivier Méhu
Technical & hardware support : Manuel Goepfert

Contact : metmap@orbifly.com




SOURCES & CREDITS :

   NOAA